Time;durP1;ratioP1;P1;durP2;ratioP2;P2;SDS_P1;SDS_P2;PMS_P1;PMS_P2;Temp;Humidity;BMP_temperature;BMP_pressure;BME280_temperature;BME280_humidity;BME280_pressure;Samples;Min_cycle;Max_cycle;Signal;HPM_P1;HPM_P2
2023/06/08 00:01:25;;;;;;;11.70;7.20;;;;;;;;;;6220664;28;20042;-77
2023/06/08 00:04:30;;;;;;;12.07;6.80;;;;;;;;;;6235473;28;20029;-77
2023/06/08 00:07:30;;;;;;;10.57;7.78;;;;;;;;;;6224556;28;20570;-77
2023/06/08 00:10:30;;;;;;;10.53;6.47;;;;;;;;;;6203606;28;20025;-77
2023/06/08 00:13:31;;;;;;;9.75;6.60;;;;;;;;;;6195761;28;20026;-77
2023/06/08 00:16:33;;;;;;;15.23;8.83;;;;;;;;;;6194112;28;20432;-81
2023/06/08 00:19:36;;;;;;;12.80;8.23;;;;;;;;;;6191222;28;20029;-82
2023/06/08 00:22:36;;;;;;;14.73;9.55;;;;;;;;;;6195218;28;20602;-81
2023/06/08 00:25:36;;;;;;;14.03;10.03;;;;;;;;;;6185390;28;20036;-81
2023/06/08 00:28:37;;;;;;;14.00;9.40;;;;;;;;;;6191158;28;20052;-81
2023/06/08 00:31:40;;;;;;;14.40;8.60;;;;;;;;;;6198028;28;20488;-81
2023/06/08 00:34:40;;;;;;;13.80;8.65;;;;;;;;;;6182689;28;20432;-77
2023/06/08 00:37:41;;;;;;;14.73;9.30;;;;;;;;;;6195805;28;20037;-77
2023/06/08 00:40:42;;;;;;;13.82;9.35;;;;;;;;;;6178957;28;20104;-77
2023/06/08 00:43:45;;;;;;;14.47;9.83;;;;;;;;;;6169142;28;20450;-77
2023/06/08 00:46:45;;;;;;;13.30;8.00;;;;;;;;;;6177682;28;20030;-78
2023/06/08 00:49:46;;;;;;;16.67;9.37;;;;;;;;;;6208564;28;20026;-77
2023/06/08 00:52:46;;;;;;;13.00;8.13;;;;;;;;;;6195594;28;20011;-77
2023/06/08 00:55:50;;;;;;;11.37;6.93;;;;;;;;;;6195200;28;20022;-78
2023/06/08 00:58:52;;;;;;;12.90;9.43;;;;;;;;;;6203202;28;20018;-77
2023/06/08 01:01:53;;;;;;;12.85;8.82;;;;;;;;;;6194308;28;20021;-77
2023/06/08 01:04:56;;;;;;;13.98;8.98;;;;;;;;;;6177507;28;20018;-77
2023/06/08 01:08:04;;;;;;;15.30;9.55;;;;;;;;;;6205081;28;20054;-77
2023/06/08 01:11:07;;;;;;;16.38;10.57;;;;;;;;;;6226493;28;20031;-77
2023/06/08 01:14:26;;;;;;;16.70;11.68;;;;;;;;;;6229207;28;20087;-77
2023/06/08 01:17:32;;;;;;;24.48;15.15;;;;;;;;;;6235752;28;20033;-77
2023/06/08 01:20:37;;;;;;;19.88;12.48;;;;;;;;;;6212335;28;20026;-77
2023/06/08 01:23:44;;;;;;;16.15;10.40;;;;;;;;;;6218704;28;20762;-77
2023/06/08 01:26:49;;;;;;;18.92;13.75;;;;;;;;;;6230031;28;20474;-82
2023/06/08 01:29:49;;;;;;;19.85;13.43;;;;;;;;;;6228462;28;20022;-82
2023/06/08 01:32:49;;;;;;;18.58;12.10;;;;;;;;;;6214838;28;20037;-81
2023/06/08 01:35:57;;;;;;;13.13;9.53;;;;;;;;;;6222099;28;20072;-82
2023/06/08 01:39:03;;;;;;;12.07;8.32;;;;;;;;;;6219416;28;20018;-81
2023/06/08 01:42:05;;;;;;;12.20;8.20;;;;;;;;;;6218859;28;20025;-82
2023/06/08 01:45:16;;;;;;;11.82;6.85;;;;;;;;;;6217900;28;20020;-81
2023/06/08 01:48:19;;;;;;;13.70;7.40;;;;;;;;;;6232897;28;20535;-81
2023/06/08 01:51:19;;;;;;;13.32;7.22;;;;;;;;;;6231456;28;20499;-81
2023/06/08 01:54:21;;;;;;;12.43;8.73;;;;;;;;;;6225689;28;20121;-81
2023/06/08 01:57:22;;;;;;;11.27;7.38;;;;;;;;;;6233927;28;20677;-81
2023/06/08 02:00:23;;;;;;;12.25;6.60;;;;;;;;;;6233814;28;20025;-81
2023/06/08 02:03:23;;;;;;;11.33;7.60;;;;;;;;;;6220236;28;20476;-81
2023/06/08 02:06:23;;;;;;;10.77;7.47;;;;;;;;;;6220110;28;20022;-81
2023/06/08 02:09:24;;;;;;;14.63;7.95;;;;;;;;;;6219011;28;20125;-81
2023/06/08 02:12:25;;;;;;;11.87;7.23;;;;;;;;;;6230452;28;20108;-81
2023/06/08 02:15:25;;;;;;;12.13;6.68;;;;;;;;;;6230412;28;20538;-81
2023/06/08 02:18:26;;;;;;;11.63;6.95;;;;;;;;;;6217832;28;20056;-81
2023/06/08 02:21:26;;;;;;;15.27;8.60;;;;;;;;;;6222263;28;20028;-80
2023/06/08 02:24:27;;;;;;;10.97;7.70;;;;;;;;;;6224384;28;20021;-81
2023/06/08 02:27:28;;;;;;;14.23;8.93;;;;;;;;;;6225577;28;20076;-80
2023/06/08 02:30:28;;;;;;;14.15;8.82;;;;;;;;;;6216276;28;20022;-81
2023/06/08 02:33:29;;;;;;;14.13;8.67;;;;;;;;;;6217300;28;20029;-80
2023/06/08 02:36:31;;;;;;;24.02;13.98;;;;;;;;;;6228807;28;20480;-77
2023/06/08 02:39:31;;;;;;;32.60;11.90;;;;;;;;;;6224873;28;20013;-77
2023/06/08 02:42:32;;;;;;;44.33;13.45;;;;;;;;;;6220725;28;20436;-77
2023/06/08 02:45:32;;;;;;;19.80;12.17;;;;;;;;;;6231484;28;20056;-77
2023/06/08 02:48:32;;;;;;;28.30;14.23;;;;;;;;;;6216169;28;20038;-77
2023/06/08 02:51:33;;;;;;;22.65;11.48;;;;;;;;;;6223072;28;20025;-77
2023/06/08 02:54:33;;;;;;;26.27;14.07;;;;;;;;;;6221133;28;20317;-77
2023/06/08 02:57:34;;;;;;;37.83;15.93;;;;;;;;;;6222583;28;20164;-77
2023/06/08 03:00:34;;;;;;;26.03;14.67;;;;;;;;;;6232735;28;20014;-76
2023/06/08 03:03:34;;;;;;;36.03;14.93;;;;;;;;;;6233284;28;20108;-76
2023/06/08 03:06:36;;;;;;;45.45;16.73;;;;;;;;;;6233755;28;20050;-77
2023/06/08 03:09:36;;;;;;;49.97;15.52;;;;;;;;;;6222551;28;20046;-76
2023/06/08 03:12:36;;;;;;;47.65;14.45;;;;;;;;;;6228534;28;20080;-76
2023/06/08 03:15:37;;;;;;;31.92;13.75;;;;;;;;;;6228964;28;20014;-77
2023/06/08 03:18:39;;;;;;;31.37;14.57;;;;;;;;;;6226624;28;20014;-77
2023/06/08 03:21:41;;;;;;;45.58;14.27;;;;;;;;;;6230915;28;20104;-77
2023/06/08 03:24:42;;;;;;;27.63;14.25;;;;;;;;;;6226809;28;20025;-76
2023/06/08 03:27:42;;;;;;;27.50;15.00;;;;;;;;;;6229943;28;20783;-77
2023/06/08 03:30:43;;;;;;;39.67;16.33;;;;;;;;;;6232972;28;20053;-76
2023/06/08 03:33:43;;;;;;;36.58;15.35;;;;;;;;;;6221547;28;20112;-77
2023/06/08 03:36:43;;;;;;;35.20;15.43;;;;;;;;;;6228283;28;20479;-77
2023/06/08 03:39:44;;;;;;;49.42;18.00;;;;;;;;;;6232600;28;20252;-77
2023/06/08 03:42:44;;;;;;;33.30;16.53;;;;;;;;;;6226275;28;20384;-77
2023/06/08 03:45:44;;;;;;;36.30;15.88;;;;;;;;;;6221751;28;20530;-77
2023/06/08 03:48:45;;;;;;;46.47;15.97;;;;;;;;;;6221374;28;20101;-76
2023/06/08 03:51:45;;;;;;;55.72;16.75;;;;;;;;;;6220716;28;20018;-76
2023/06/08 03:54:45;;;;;;;41.70;16.30;;;;;;;;;;6223832;28;20030;-76
2023/06/08 03:57:46;;;;;;;46.13;16.20;;;;;;;;;;6222646;28;20022;-76
2023/06/08 04:00:49;;;;;;;32.77;16.03;;;;;;;;;;6217542;28;20029;-76
2023/06/08 04:03:49;;;;;;;27.27;15.70;;;;;;;;;;6240881;28;20018;-76
2023/06/08 04:06:51;;;;;;;26.73;12.17;;;;;;;;;;6227106;28;20018;-76
2023/06/08 04:09:51;;;;;;;26.70;13.87;;;;;;;;;;6221342;28;20125;-76
2023/06/08 04:12:51;;;;;;;21.27;12.38;;;;;;;;;;6218772;28;20359;-77
2023/06/08 04:15:51;;;;;;;25.57;15.37;;;;;;;;;;6231804;28;20022;-77
2023/06/08 04:18:53;;;;;;;24.97;14.67;;;;;;;;;;6224202;28;20089;-77
2023/06/08 04:21:56;;;;;;;21.17;13.60;;;;;;;;;;6227212;28;20499;-77
2023/06/08 04:24:56;;;;;;;23.15;14.15;;;;;;;;;;6223455;28;20024;-80
2023/06/08 04:27:57;;;;;;;26.87;14.70;;;;;;;;;;6217080;28;20395;-81
2023/06/08 04:31:00;;;;;;;22.50;14.27;;;;;;;;;;6212840;28;20018;-82
2023/06/08 04:34:01;;;;;;;21.92;13.55;;;;;;;;;;6212426;28;20076;-82
2023/06/08 04:37:02;;;;;;;19.35;14.50;;;;;;;;;;6211729;28;20422;-77
2023/06/08 04:40:04;;;;;;;22.13;14.27;;;;;;;;;;6227173;28;20014;-77
2023/06/08 04:43:04;;;;;;;20.55;13.40;;;;;;;;;;6211482;28;20029;-77
2023/06/08 04:46:07;;;;;;;21.03;14.13;;;;;;;;;;6214374;28;20021;-77
2023/06/08 04:49:12;;;;;;;18.60;13.80;;;;;;;;;;6218500;28;20072;-76
2023/06/08 04:52:15;;;;;;;16.95;12.30;;;;;;;;;;6214555;28;20025;-77
2023/06/08 04:55:16;;;;;;;17.13;11.80;;;;;;;;;;6229344;28;20097;-77
2023/06/08 04:58:16;;;;;;;16.92;12.75;;;;;;;;;;6224277;28;20041;-77
2023/06/08 05:01:16;;;;;;;16.17;11.90;;;;;;;;;;6207472;28;20018;-77
2023/06/08 05:04:16;;;;;;;16.07;10.93;;;;;;;;;;6222700;28;20117;-77
2023/06/08 05:07:17;;;;;;;17.57;10.53;;;;;;;;;;6212524;28;20022;-78
2023/06/08 05:10:17;;;;;;;15.10;10.20;;;;;;;;;;6222388;28;20472;-77
2023/06/08 05:13:17;;;;;;;12.27;9.67;;;;;;;;;;6224471;28;20033;-77
2023/06/08 05:16:17;;;;;;;12.30;9.37;;;;;;;;;;6223083;28;20080;-78
2023/06/08 05:19:17;;;;;;;11.97;8.73;;;;;;;;;;6217578;28;20411;-77
2023/06/08 05:22:18;;;;;;;14.50;8.33;;;;;;;;;;6217565;28;20498;-78
2023/06/08 05:25:18;;;;;;;10.40;7.73;;;;;;;;;;6225731;28;20032;-78
2023/06/08 05:28:19;;;;;;;12.93;9.27;;;;;;;;;;6213341;28;20096;-77
2023/06/08 05:31:19;;;;;;;13.17;8.00;;;;;;;;;;6217390;28;20037;-75
2023/06/08 05:34:20;;;;;;;13.07;8.53;;;;;;;;;;6218311;28;20018;-81
2023/06/08 05:37:20;;;;;;;10.57;7.13;;;;;;;;;;6226628;28;20028;-81
2023/06/08 05:40:20;;;;;;;14.83;8.73;;;;;;;;;;6226127;28;20030;-81
2023/06/08 05:43:20;;;;;;;9.87;7.60;;;;;;;;;;6219217;28;20100;-82
2023/06/08 05:46:20;;;;;;;11.60;7.07;;;;;;;;;;6217772;28;20037;-76
2023/06/08 05:49:21;;;;;;;10.65;6.85;;;;;;;;;;6217259;28;20030;-76
2023/06/08 05:52:21;;;;;;;11.73;6.47;;;;;;;;;;6226479;28;20121;-76
2023/06/08 05:55:22;;;;;;;10.25;6.70;;;;;;;;;;6223110;28;20097;-82
2023/06/08 05:58:23;;;;;;;9.82;6.55;;;;;;;;;;6217274;28;20510;-83
2023/06/08 06:01:23;;;;;;;11.32;6.88;;;;;;;;;;6220242;28;20029;-82
2023/06/08 06:04:23;;;;;;;8.70;6.47;;;;;;;;;;6218605;28;20049;-77
2023/06/08 06:07:24;;;;;;;8.80;6.47;;;;;;;;;;6208133;28;20180;-77
2023/06/08 06:10:24;;;;;;;8.35;6.05;;;;;;;;;;6221301;28;20100;-77
2023/06/08 06:13:26;;;;;;;8.30;5.87;;;;;;;;;;6223806;28;20107;-76
2023/06/08 06:16:26;;;;;;;9.63;5.70;;;;;;;;;;6220489;28;20072;-76
2023/06/08 06:19:26;;;;;;;;;;;;;;;;;;6217963;28;20018;-77
2023/06/08 06:22:26;;;;;;;7.93;5.43;;;;;;;;;;6219303;28;19909;-77
2023/06/08 06:25:26;;;;;;;;;;;;;;;;;;6222760;28;20267;-77
2023/06/08 06:28:27;;;;;;;6.65;4.75;;;;;;;;;;6223225;28;19906;-77
2023/06/08 06:31:27;;;;;;;;;;;;;;;;;;6223288;28;20605;-77
2023/06/08 06:34:27;;;;;;;5.82;3.75;;;;;;;;;;6222301;28;19909;-77
2023/06/08 06:37:34;;;;;;;6.80;3.87;;;;;;;;;;6229319;28;20028;-77
2023/06/08 06:40:34;;;;;;;7.40;3.92;;;;;;;;;;6221868;28;20022;-77
2023/06/08 06:43:34;;;;;;;7.15;3.88;;;;;;;;;;6226375;28;20030;-77
2023/06/08 06:46:34;;;;;;;8.03;3.80;;;;;;;;;;6232072;28;20121;-77
2023/06/08 06:49:35;;;;;;;5.00;3.13;;;;;;;;;;6223186;28;20029;-76
2023/06/08 06:52:35;;;;;;;7.43;3.55;;;;;;;;;;6222713;28;20026;-76
2023/06/08 06:55:35;;;;;;;5.20;2.93;;;;;;;;;;6235159;28;20025;-81
2023/06/08 06:58:36;;;;;;;7.00;3.40;;;;;;;;;;6220342;28;20438;-82
2023/06/08 07:01:36;;;;;;;7.40;3.43;;;;;;;;;;6220483;28;20265;-84
2023/06/08 07:04:38;;;;;;;6.23;3.70;;;;;;;;;;6221654;28;20014;-77
2023/06/08 07:07:38;;;;;;;4.07;2.70;;;;;;;;;;6218198;28;20041;-77
2023/06/08 07:10:38;;;;;;;5.63;3.40;;;;;;;;;;6219707;28;20104;-77
2023/06/08 07:13:39;;;;;;;5.00;2.92;;;;;;;;;;6227399;28;20756;-77
2023/06/08 07:16:40;;;;;;;5.00;3.10;;;;;;;;;;6220741;28;20029;-77
2023/06/08 07:19:41;;;;;;;5.80;3.45;;;;;;;;;;6217054;28;20030;-77
2023/06/08 07:22:41;;;;;;;6.35;3.78;;;;;;;;;;6226966;28;20030;-77
2023/06/08 07:25:41;;;;;;;;;;;;;;;;;;6236129;28;20030;-77
2023/06/08 07:28:42;;;;;;;5.63;3.95;;;;;;;;;;6221290;28;20599;-77
2023/06/08 07:31:42;;;;;;;;;;;;;;;;;;6224655;28;20464;-77
2023/06/08 07:34:42;;;;;;;7.88;5.22;;;;;;;;;;6224521;28;19937;-77
2023/06/08 07:37:42;;;;;;;;;;;;;;;;;;6225105;28;20032;-77
2023/06/08 07:40:43;;;;;;;7.22;5.10;;;;;;;;;;6235594;28;20653;-76
2023/06/08 07:43:43;;;;;;;6.97;4.60;;;;;;;;;;6230470;28;20018;-77
2023/06/08 07:46:43;;;;;;;;;;;;;;;;;;6229210;28;20767;-77
2023/06/08 07:49:43;;;;;;;6.95;4.35;;;;;;;;;;6221301;28;19910;-77
2023/06/08 07:52:43;;;;;;;;;;;;;;;;;;6233558;28;20076;-77
2023/06/08 07:55:43;;;;;;;7.40;4.60;;;;;;;;;;6218506;28;20012;-77
2023/06/08 07:58:43;;;;;;;;;;;;;;;;;;6217024;28;20021;-77
2023/06/08 08:01:44;;;;;;;8.88;6.15;;;;;;;;;;6224499;28;19912;-77
2023/06/08 08:04:44;;;;;;;;;;;;;;;;;;6224325;28;20482;-77
2023/06/08 08:07:44;;;;;;;10.18;5.60;;;;;;;;;;6223781;28;20004;-77
2023/06/08 08:10:44;;;;;;;6.80;4.57;;;;;;;;;;6217960;28;20033;-77
2023/06/08 08:13:45;;;;;;;7.03;5.07;;;;;;;;;;6218749;28;20036;-77
2023/06/08 08:16:45;;;;;;;8.07;5.13;;;;;;;;;;6216636;28;20280;-77
2023/06/08 08:19:45;;;;;;;7.63;5.30;;;;;;;;;;6220656;28;20076;-77
2023/06/08 08:22:46;;;;;;;8.00;5.55;;;;;;;;;;6230527;28;20022;-77
2023/06/08 08:25:46;;;;;;;6.63;5.17;;;;;;;;;;6227633;28;20040;-82
2023/06/08 08:28:46;;;;;;;7.27;5.70;;;;;;;;;;6225081;28;20037;-83
2023/06/08 08:31:47;;;;;;;8.45;5.28;;;;;;;;;;6219039;28;20022;-81
2023/06/08 08:34:47;;;;;;;8.80;5.60;;;;;;;;;;6217812;28;20830;-81
2023/06/08 08:37:47;;;;;;;7.23;5.00;;;;;;;;;;6221278;28;20533;-81
2023/06/08 08:40:48;;;;;;;8.07;5.23;;;;;;;;;;6222491;28;20092;-81
2023/06/08 08:43:48;;;;;;;;;;;;;;;;;;6223126;28;20075;-81
2023/06/08 08:46:49;;;;;;;11.43;6.20;;;;;;;;;;6223528;28;19921;-82
2023/06/08 08:49:54;;;;;;;10.97;6.97;;;;;;;;;;6231829;28;20026;-81
2023/06/08 08:52:56;;;;;;;10.35;8.23;;;;;;;;;;6213592;28;20853;-81
2023/06/08 08:55:57;;;;;;;11.00;7.20;;;;;;;;;;6212978;28;20114;-82
2023/06/08 08:58:57;;;;;;;9.80;6.73;;;;;;;;;;6221743;28;20024;-82
2023/06/08 09:01:57;;;;;;;10.60;7.17;;;;;;;;;;6233330;28;20380;-82
2023/06/08 09:04:57;;;;;;;11.37;8.10;;;;;;;;;;6230229;28;20025;-82
2023/06/08 09:07:57;;;;;;;11.83;8.97;;;;;;;;;;6225418;28;20144;-82
2023/06/08 09:11:04;;;;;;;12.73;8.37;;;;;;;;;;6224224;28;20502;-81
2023/06/08 09:14:08;;;;;;;11.95;8.93;;;;;;;;;;6211004;28;20113;-82
2023/06/08 09:17:08;;;;;;;12.05;8.25;;;;;;;;;;6223302;28;20566;-83
2023/06/08 09:20:10;;;;;;;13.63;10.17;;;;;;;;;;6198997;28;20026;-82
2023/06/08 09:23:25;;;;;;;12.40;9.20;;;;;;;;;;6238759;28;20010;-83
2023/06/08 09:26:34;;;;;;;12.13;8.90;;;;;;;;;;6233076;28;20026;-83
2023/06/08 09:29:35;;;;;;;14.30;8.93;;;;;;;;;;6224609;28;20581;-83
2023/06/08 09:32:36;;;;;;;12.85;7.97;;;;;;;;;;6236447;28;20030;-82
2023/06/08 09:35:37;;;;;;;11.02;8.82;;;;;;;;;;6225247;28;20109;-77
2023/06/08 09:38:38;;;;;;;10.33;7.80;;;;;;;;;;6217868;28;20028;-77
2023/06/08 09:41:39;;;;;;;13.77;9.23;;;;;;;;;;6221917;28;20033;-77
2023/06/08 09:44:39;;;;;;;11.73;8.63;;;;;;;;;;6220021;28;20099;-78
2023/06/08 09:47:40;;;;;;;11.27;7.60;;;;;;;;;;6231144;28;20076;-75
2023/06/08 09:50:42;;;;;;;11.50;8.27;;;;;;;;;;6235448;28;20048;-76
2023/06/08 09:53:43;;;;;;;10.35;7.63;;;;;;;;;;6222801;28;20033;-77
2023/06/08 09:56:45;;;;;;;12.90;8.65;;;;;;;;;;6216340;28;20072;-77
2023/06/08 09:59:46;;;;;;;14.43;8.35;;;;;;;;;;6218271;28;20028;-77
2023/06/08 10:02:46;;;;;;;;;;;;;;;;;;6227439;28;20037;-77
2023/06/08 10:05:48;;;;;;;9.45;6.93;;;;;;;;;;6211179;28;19932;-77
2023/06/08 10:08:51;;;;;;;12.57;7.55;;;;;;;;;;6220843;28;20052;-76
2023/06/08 10:11:51;;;;;;;11.30;7.35;;;;;;;;;;6217719;28;20833;-77
2023/06/08 10:14:52;;;;;;;12.80;7.73;;;;;;;;;;6221780;28;20128;-77
2023/06/08 10:17:53;;;;;;;9.83;7.30;;;;;;;;;;6220251;28;20079;-77
2023/06/08 10:20:53;;;;;;;12.10;7.03;;;;;;;;;;6222084;28;20018;-78
2023/06/08 10:23:54;;;;;;;13.33;7.60;;;;;;;;;;6233439;28;20096;-78
2023/06/08 10:27:08;;;;;;;10.43;7.63;;;;;;;;;;6218957;28;20014;-76
2023/06/08 10:30:08;;;;;;;10.20;6.55;;;;;;;;;;6221968;28;20029;-76
2023/06/08 10:33:20;;;;;;;6.93;5.20;;;;;;;;;;6220350;28;20125;-76
2023/06/08 10:36:33;;;;;;;9.68;5.88;;;;;;;;;;6221856;28;20624;-76
2023/06/08 10:39:46;;;;;;;10.35;6.63;;;;;;;;;;6222857;28;20021;-76
2023/06/08 10:42:58;;;;;;;9.13;6.13;;;;;;;;;;6212651;28;20541;-77
2023/06/08 10:45:59;;;;;;;9.88;6.60;;;;;;;;;;6232740;28;20018;-77
2023/06/08 10:49:00;;;;;;;12.40;7.32;;;;;;;;;;6217751;28;20025;-77
2023/06/08 10:52:02;;;;;;;12.30;6.28;;;;;;;;;;6222978;28;20360;-76
2023/06/08 10:55:08;;;;;;;10.68;6.68;;;;;;;;;;6228170;28;20018;-76
2023/06/08 10:58:19;;;;;;;8.52;5.93;;;;;;;;;;6225335;28;20388;-77
2023/06/08 11:01:20;;;;;;;;;;;;;;;;;;6227691;28;20084;-76
2023/06/08 11:04:20;;;;;;;13.23;6.57;;;;;;;;;;6218248;28;19905;-77
2023/06/08 11:07:22;;;;;;;12.33;5.33;;;;;;;;;;6225919;28;20330;-76
2023/06/08 11:10:26;;;;;;;5.68;4.47;;;;;;;;;;6214352;28;20538;-77
2023/06/08 11:13:27;;;;;;;8.70;5.03;;;;;;;;;;6215498;28;20622;-77
2023/06/08 11:16:29;;;;;;;8.57;5.93;;;;;;;;;;6222506;28;20357;-76
2023/06/08 11:19:30;;;;;;;7.85;5.32;;;;;;;;;;6232318;28;20025;-77
2023/06/08 11:22:30;;;;;;;;;;;;;;;;;;6222480;28;20022;-77
2023/06/08 11:25:31;;;;;;;7.03;4.97;;;;;;;;;;6222998;28;20291;-76
2023/06/08 11:28:31;;;;;;;;;;;;;;;;;;6239497;28;20023;-76
2023/06/08 11:31:32;;;;;;;10.13;5.88;;;;;;;;;;6227711;28;20401;-76
2023/06/08 11:34:32;;;;;;;8.02;4.93;;;;;;;;;;6226165;28;20741;-77
2023/06/08 11:37:33;;;;;;;;;;;;;;;;;;6220888;28;20021;-77
2023/06/08 11:40:34;;;;;;;7.32;5.30;;;;;;;;;;6231059;28;19958;-77
2023/06/08 11:43:34;;;;;;;;;;;;;;;;;;6239793;28;20092;-76
2023/06/08 11:46:36;;;;;;;6.93;4.55;;;;;;;;;;6243044;28;19971;-77
2023/06/08 11:49:57;;;;;;;7.28;4.93;;;;;;;;;;6215791;28;20037;-77
2023/06/08 11:53:00;;;;;;;8.02;5.32;;;;;;;;;;6218297;28;20013;-77
2023/06/08 11:56:01;;;;;;;7.32;5.53;;;;;;;;;;6222376;28;20029;-82
2023/06/08 11:59:02;;;;;;;;;;;;;;;;;;6233773;28;20018;-81
2023/06/08 12:02:06;;;;;;;6.85;4.93;;;;;;;;;;6238218;28;19909;-81
2023/06/08 12:05:12;;;;;;;10.68;6.45;;;;;;;;;;6226546;28;20014;-80
2023/06/08 12:08:15;;;;;;;8.68;6.07;;;;;;;;;;6220058;28;20517;-81
2023/06/08 12:11:16;;;;;;;8.98;7.05;;;;;;;;;;6229237;28;20141;-82
2023/06/08 12:14:16;;;;;;;10.00;6.50;;;;;;;;;;6222043;28;20036;-82
2023/06/08 12:17:23;;;;;;;8.97;6.13;;;;;;;;;;6229405;28;20553;-83
2023/06/08 12:20:29;;;;;;;8.15;5.97;;;;;;;;;;6217651;28;20029;-81
2023/06/08 12:23:29;;;;;;;9.98;7.50;;;;;;;;;;6226913;28;20026;-82
2023/06/08 12:26:31;;;;;;;8.20;6.60;;;;;;;;;;6221801;28;20070;-82
2023/06/08 12:29:31;;;;;;;9.80;5.95;;;;;;;;;;6214552;28;20452;-81
2023/06/08 12:32:32;;;;;;;8.40;5.90;;;;;;;;;;6221588;28;20025;-82
2023/06/08 12:35:32;;;;;;;8.30;6.20;;;;;;;;;;6224448;28;20022;-81
2023/06/08 12:38:32;;;;;;;8.13;4.93;;;;;;;;;;6220358;28;20098;-82
2023/06/08 12:41:33;;;;;;;8.50;5.60;;;;;;;;;;6222387;28;20028;-82
2023/06/08 12:44:33;;;;;;;13.20;7.70;;;;;;;;;;6219313;28;20387;-82
2023/06/08 12:47:33;;;;;;;8.88;5.40;;;;;;;;;;6221897;28;20029;-81
2023/06/08 12:50:34;;;;;;;7.83;5.43;;;;;;;;;;6219983;28;20428;-81
2023/06/08 12:53:34;;;;;;;8.17;5.67;;;;;;;;;;6216531;28;20049;-82
2023/06/08 12:56:35;;;;;;;8.15;5.57;;;;;;;;;;6218732;28;20276;-81
2023/06/08 12:59:35;;;;;;;8.13;5.95;;;;;;;;;;6220428;28;20075;-81
2023/06/08 13:02:36;;;;;;;;;;;;;;;;;;6223869;28;20488;-80
2023/06/08 13:05:36;;;;;;;10.55;5.70;;;;;;;;;;6229995;28;19916;-76
2023/06/08 13:08:37;;;;;;;;;;;;;;;;;;6221099;28;20124;-77
2023/06/08 13:11:39;;;;;;;8.43;5.70;;;;;;;;;;6230857;28;20286;-76
2023/06/08 13:14:40;;;;;;;8.30;5.70;;;;;;;;;;6213940;28;20014;-76
2023/06/08 13:17:40;;;;;;;;;;;;;;;;;;6214429;28;20613;-76
2023/06/08 13:20:41;;;;;;;7.15;4.72;;;;;;;;;;6218388;28;20371;-77
2023/06/08 13:23:41;;;;;;;;;;;;;;;;;;6218057;28;20105;-76
2023/06/08 13:26:41;;;;;;;7.65;5.43;;;;;;;;;;6234098;28;20374;-76
2023/06/08 13:29:48;;;;;;;;;;;;;;;;;;6214942;28;20026;-77
2023/06/08 13:32:48;;;;;;;8.77;5.68;;;;;;;;;;6220772;28;19925;-76
2023/06/08 13:35:48;;;;;;;;;;;;;;;;;;6219953;28;20052;-76
2023/06/08 13:38:48;;;;;;;11.23;7.13;;;;;;;;;;6208186;28;19906;-76
2023/06/08 13:41:48;;;;;;;;;;;;;;;;;;6222012;28;20040;-76
2023/06/08 13:44:50;;;;;;;8.55;5.80;;;;;;;;;;6215249;28;19949;-76
2023/06/08 13:47:51;;;;;;;9.02;6.30;;;;;;;;;;6223319;28;20025;-76
2023/06/08 13:50:51;;;;;;;9.03;5.93;;;;;;;;;;6218231;28;20884;-76
2023/06/08 13:53:52;;;;;;;;;;;;;;;;;;6217575;28;20025;-77
2023/06/08 13:56:52;;;;;;;9.17;5.80;;;;;;;;;;6216947;28;19917;-76
2023/06/08 13:59:52;;;;;;;;;;;;;;;;;;6215584;28;20472;-77
2023/06/08 14:02:52;;;;;;;8.48;6.05;;;;;;;;;;6225873;28;19953;-77
2023/06/08 14:05:52;;;;;;;;;;;;;;;;;;6223195;28;20022;-76
2023/06/08 14:08:53;;;;;;;8.05;5.70;;;;;;;;;;6222421;28;19956;-77
2023/06/08 14:11:53;;;;;;;;;;;;;;;;;;6218712;28;20032;-77
2023/06/08 14:14:53;;;;;;;9.77;6.00;;;;;;;;;;6209717;28;19909;-77
2023/06/08 14:17:56;;;;;;;;;;;;;;;;;;6214273;28;20133;-77
2023/06/08 14:20:56;;;;;;;6.93;5.05;;;;;;;;;;6217853;28;19916;-77
2023/06/08 14:23:56;;;;;;;;;;;;;;;;;;6217684;28;20022;-76
2023/06/08 14:26:56;;;;;;;6.70;4.53;;;;;;;;;;6230503;28;19909;-76
2023/06/08 14:29:56;;;;;;;;;;;;;;;;;;6215377;28;20141;-76
2023/06/08 14:32:58;;;;;;;5.35;3.97;;;;;;;;;;6220461;28;20001;-76
2023/06/08 14:35:59;;;;;;;6.97;4.32;;;;;;;;;;6217563;28;20030;-76
2023/06/08 14:38:59;;;;;;;9.07;5.77;;;;;;;;;;6215239;28;20029;-76
2023/06/08 14:41:59;;;;;;;8.57;6.03;;;;;;;;;;6225782;28;20291;-76
2023/06/08 14:44:59;;;;;;;;;;;;;;;;;;6230697;28;20017;-76
2023/06/08 14:48:00;;;;;;;8.47;5.67;;;;;;;;;;6221241;28;19905;-76
2023/06/08 14:51:00;;;;;;;;;;;;;;;;;;6221502;28;20257;-77
2023/06/08 14:54:00;;;;;;;8.93;6.18;;;;;;;;;;6225104;28;19913;-76
2023/06/08 14:57:01;;;;;;;;;;;;;;;;;;6227006;28;20022;-76
2023/06/08 15:00:01;;;;;;;10.82;7.35;;;;;;;;;;6221106;28;19964;-75
2023/06/08 15:03:02;;;;;;;;;;;;;;;;;;6221336;28;20010;-76
2023/06/08 15:06:02;;;;;;;9.15;5.57;;;;;;;;;;6218243;28;19996;-76
2023/06/08 15:09:02;;;;;;;;;;;;;;;;;;6220511;28;20595;-76
2023/06/08 15:12:02;;;;;;;9.10;6.22;;;;;;;;;;6219978;28;19913;-76
2023/06/08 15:15:03;;;;;;;11.27;7.40;;;;;;;;;;6215653;28;20488;-76
2023/06/08 15:18:03;;;;;;;10.57;7.23;;;;;;;;;;6226005;28;20294;-77
2023/06/08 15:21:03;;;;;;;11.63;8.27;;;;;;;;;;6220713;28;20017;-76
2023/06/08 15:24:04;;;;;;;12.13;7.15;;;;;;;;;;6221332;28;20065;-76
2023/06/08 15:27:05;;;;;;;10.80;6.13;;;;;;;;;;6221394;28;20763;-82
2023/06/08 15:30:05;;;;;;;7.78;5.88;;;;;;;;;;6233560;28;20019;-82
2023/06/08 15:33:05;;;;;;;8.97;6.43;;;;;;;;;;6230599;28;20480;-80
2023/06/08 15:36:05;;;;;;;7.90;6.27;;;;;;;;;;6227682;28;20342;-80
2023/06/08 15:39:07;;;;;;;8.88;5.82;;;;;;;;;;6218115;28;20412;-81
2023/06/08 15:42:07;;;;;;;8.43;5.85;;;;;;;;;;6228383;28;20013;-81
2023/06/08 15:45:08;;;;;;;9.00;6.03;;;;;;;;;;6225221;28;20124;-81
2023/06/08 15:48:09;;;;;;;9.50;5.75;;;;;;;;;;6219318;28;20107;-81
2023/06/08 15:51:11;;;;;;;9.50;6.82;;;;;;;;;;6230897;28;20121;-80
2023/06/08 15:54:11;;;;;;;;;;;;;;;;;;6221343;28;20101;-81
2023/06/08 15:57:11;;;;;;;9.30;6.33;;;;;;;;;;6220305;28;19910;-80
2023/06/08 16:00:12;;;;;;;11.10;6.27;;;;;;;;;;6212232;28;20057;-80
2023/06/08 16:03:12;;;;;;;9.55;5.70;;;;;;;;;;6216195;28;20014;-80
2023/06/08 16:06:12;;;;;;;9.77;6.07;;;;;;;;;;6226408;28;20077;-81
2023/06/08 16:09:13;;;;;;;10.80;5.63;;;;;;;;;;6218852;28;20058;-81
2023/06/08 16:12:14;;;;;;;9.23;6.22;;;;;;;;;;6228605;28;20136;-82
2023/06/08 16:15:14;;;;;;;11.65;6.43;;;;;;;;;;6226496;28;20030;-81
2023/06/08 16:18:14;;;;;;;8.27;5.83;;;;;;;;;;6220540;28;20845;-79
2023/06/08 16:21:15;;;;;;;9.13;6.30;;;;;;;;;;6223521;28;20017;-81
2023/06/08 16:24:20;;;;;;;10.77;6.00;;;;;;;;;;6220911;28;20064;-82
2023/06/08 16:27:20;;;;;;;8.93;5.47;;;;;;;;;;6217585;28;20111;-81
2023/06/08 16:30:20;;;;;;;10.70;6.87;;;;;;;;;;6223575;28;20488;-82
2023/06/08 16:33:20;;;;;;;9.17;6.63;;;;;;;;;;6216385;28;20033;-81
2023/06/08 16:36:21;;;;;;;10.37;6.57;;;;;;;;;;6210331;28;20506;-76
2023/06/08 16:39:21;;;;;;;7.73;5.30;;;;;;;;;;6215429;28;20118;-76
2023/06/08 16:42:21;;;;;;;14.13;7.17;;;;;;;;;;6226592;28;20045;-76
2023/06/08 16:45:21;;;;;;;10.33;6.30;;;;;;;;;;6221321;28;20024;-76
2023/06/08 16:48:21;;;;;;;10.80;6.93;;;;;;;;;;6218029;28;20047;-76
2023/06/08 16:51:22;;;;;;;8.60;6.60;;;;;;;;;;6213509;28;20030;-75
2023/06/08 16:54:22;;;;;;;10.40;6.00;;;;;;;;;;6221759;28;20022;-77
2023/06/08 16:57:22;;;;;;;10.43;5.90;;;;;;;;;;6215589;28;20162;-82
2023/06/08 17:00:24;;;;;;;9.43;6.90;;;;;;;;;;6227367;28;20064;-82
2023/06/08 17:03:25;;;;;;;10.63;6.55;;;;;;;;;;6225293;28;20086;-81
2023/06/08 17:06:25;;;;;;;16.07;6.63;;;;;;;;;;6224333;28;20036;-81
2023/06/08 17:09:25;;;;;;;13.33;7.73;;;;;;;;;;6219903;28;20451;-81
2023/06/08 17:12:26;;;;;;;13.63;9.73;;;;;;;;;;6216965;28;20400;-81
2023/06/08 17:15:26;;;;;;;10.57;6.30;;;;;;;;;;6223784;28;20057;-82
2023/06/08 17:18:26;;;;;;;10.43;6.57;;;;;;;;;;6227096;28;20057;-81
2023/06/08 17:21:26;;;;;;;10.27;7.30;;;;;;;;;;6224154;28;20052;-82
2023/06/08 17:24:26;;;;;;;11.75;7.65;;;;;;;;;;6223526;28;20120;-81
2023/06/08 17:27:27;;;;;;;10.97;6.20;;;;;;;;;;6223116;28;20030;-82
2023/06/08 17:30:27;;;;;;;10.20;7.17;;;;;;;;;;6223582;28;20272;-81
2023/06/08 17:33:28;;;;;;;9.10;6.47;;;;;;;;;;6221614;28;20032;-82
2023/06/08 17:36:28;;;;;;;10.37;6.23;;;;;;;;;;6221098;28;20068;-82
2023/06/08 17:39:28;;;;;;;9.40;6.78;;;;;;;;;;6220370;28;20065;-82
2023/06/08 17:42:28;;;;;;;8.35;5.45;;;;;;;;;;6220343;28;20022;-81
2023/06/08 17:45:28;;;;;;;9.55;7.15;;;;;;;;;;6229218;28;20133;-76
2023/06/08 17:48:29;;;;;;;9.75;7.13;;;;;;;;;;6218718;28;20022;-77
2023/06/08 17:51:29;;;;;;;10.90;6.85;;;;;;;;;;6218404;28;20516;-77
2023/06/08 17:54:30;;;;;;;10.70;6.80;;;;;;;;;;6220871;28;20068;-76
2023/06/08 17:57:30;;;;;;;10.95;6.88;;;;;;;;;;6226661;28;20025;-77
2023/06/08 18:00:30;;;;;;;10.40;7.27;;;;;;;;;;6226277;28;20562;-77
2023/06/08 18:03:31;;;;;;;12.88;7.63;;;;;;;;;;6233462;28;20021;-77
2023/06/08 18:06:31;;;;;;;10.33;7.33;;;;;;;;;;6221789;28;20459;-77
2023/06/08 18:09:31;;;;;;;9.43;7.23;;;;;;;;;;6230054;28;20053;-76